This is the latest recevied weather packets stored in our database for station/object WP4NYS-13. If no packets are shown the sender has not sent any weather packets the latest 10 day(s).
| Time | Temp. | Humidity | Pressure | Rain* | Wind** | Luminosity | Snow |
|---|---|---|---|---|---|---|---|
| 1777225856 | 30° C | 46% | 1011.5 hPa | 0 mm | - | - | - |
| 1777225552 | 30.56° C | 45% | 1011.6 hPa | 0 mm | - | - | - |
| 1777225250 | 30.56° C | 45% | 1011.6 hPa | 0 mm | - | - | - |
| 1777224945 | 31.67° C | 43% | 1011.7 hPa | 0 mm | - | - | - |
| 1777224644 | 30.56° C | 44% | 1011.6 hPa | 0 mm | - | - | - |
| 1777224343 | 30° C | 46% | 1011.8 hPa | 0 mm | - | - | - |
| 1777224039 | 30.56° C | 46% | 1012 hPa | 0 mm | - | - | - |
| 1777223737 | 31.11° C | 44% | 1011.8 hPa | 0 mm | - | - | - |
| 1777223432 | 30° C | 46% | 1011.9 hPa | 0 mm | - | - | - |
| 1777223131 | 30.56° C | 45% | 1012 hPa | 0 mm | - | - | - |
| 1777222827 | 30.56° C | 45% | 1012.1 hPa | 0 mm | - | - | - |
| 1777222525 | 30° C | 45% | 1012.1 hPa | 0 mm | - | - | - |
| 1777222222 | 29.44° C | 48% | 1012.1 hPa | 0 mm | - | - | - |
| 1777221920 | 29.44° C | 49% | 1012.2 hPa | 0 mm | - | - | - |
| 1777221615 | 28.89° C | 49% | 1012.4 hPa | 0 mm | - | - | - |
| 1777221312 | 28.89° C | 51% | 1012.3 hPa | 0 mm | - | - | - |
| 1777221010 | 28.89° C | 50% | 1012.5 hPa | 0 mm | - | - | - |
| 1777220704 | 28.89° C | 50% | 1012.5 hPa | 0 mm | - | - | - |
| 1777220401 | 28.33° C | 51% | 1012.4 hPa | 0 mm | - | - | - |
| 1777220100 | 29.44° C | 49% | 1012.4 hPa | 0 mm | - | - | - |
| 1777219797 | 29.44° C | 49% | 1012.5 hPa | 0 mm | - | - | - |
| 1777219495 | 29.44° C | 51% | 1012.7 hPa | 0 mm | - | - | - |
| 1777219190 | 29.44° C | 51% | 1012.5 hPa | 0 mm | - | - | - |
| 1777218887 | 28.89° C | 52% | 1012.7 hPa | 0 mm | - | - | - |
| 1777218583 | 27.78° C | 55% | 1012.7 hPa | 0 mm | - | - | - |
* Rain latest hour (hover to see other rain measurements)
** Current wind speed in m/s (hover to see current wind gust speed)